Terminal Aerodrome Forecast
Issued by NWS

Home | Current Version | Previous Version | Text Only | Print | Product List | Glossary On
Versions: 1 2 3 4 5 6 7 8 9 10 11 12 13 14 15 16 17
000
FTUS42 KMLB 282329
TAFTIX
TAF
KTIX 282329Z 2900/2924 12012KT P6SM FEW019 SCT050 BKN100
     FM290200 VRB01KT P6SM SCT070 BKN250
     FM291400 10005KT P6SM FEW020 SCT100 BKN250
     FM291800 08008KT P6SM BKN250 PROB30 2918/2922 P6SM TS BKN035CB
      BKN070
      AMD NOT SKED 2902/2912=

USA.gov is the U.S. government's official web portal to all federal, state and local government web resources and services.